createdAt,value
2016-12-18T00:00:07.706Z,3.45
2016-12-18T00:01:18.052Z,3.37
2016-12-18T00:02:28.056Z,3.34
2016-12-18T00:03:38.379Z,3.37
2016-12-18T00:04:48.714Z,3.35
2016-12-18T00:05:59.118Z,3.3
2016-12-18T00:07:09.157Z,3.34
2016-12-18T00:08:19.219Z,3.3
2016-12-18T00:09:29.618Z,3.39
2016-12-18T00:10:39.951Z,3.35
2016-12-18T00:11:50.279Z,3.3
2016-12-18T00:13:00.627Z,3.34
2016-12-18T00:14:10.341Z,3.37
2016-12-18T00:15:20.039Z,3.39
2016-12-18T00:16:30.376Z,3.29
2016-12-18T00:17:40.433Z,3.27
2016-12-18T00:18:50.763Z,3.34
2016-12-18T00:20:01.124Z,3.3
2016-12-18T00:21:11.155Z,3.34
2016-12-18T00:22:21.486Z,3.34
2016-12-18T00:23:31.212Z,3.29
2016-12-18T00:24:41.540Z,3.37
2016-12-18T00:25:51.577Z,3.39
2016-12-18T00:27:01.925Z,3.37
2016-12-18T00:28:12.272Z,3.29
2016-12-18T00:29:22.285Z,3.32
2016-12-18T00:30:32.309Z,3.34
2016-12-18T00:31:42.643Z,3.35
2016-12-18T00:32:52.975Z,3.39
2016-12-18T00:34:03.035Z,3.37
2016-12-18T00:35:13.063Z,3.35
2016-12-18T00:36:23.109Z,3.42
2016-12-18T00:37:33.448Z,3.34
2016-12-18T00:38:43.500Z,3.39
2016-12-18T00:39:53.843Z,3.51
2016-12-18T00:41:04.187Z,3.4
2016-12-18T00:42:13.899Z,3.42
2016-12-18T00:43:24.233Z,3.49
2016-12-18T00:44:33.933Z,3.46
2016-12-18T00:45:43.935Z,3.46
2016-12-18T00:46:54.266Z,3.43
2016-12-18T00:48:04.335Z,3.39
2016-12-18T00:49:14.668Z,3.48
2016-12-18T00:50:24.707Z,3.45
2016-12-18T00:51:34.730Z,3.45
2016-12-18T00:52:45.068Z,3.45
2016-12-18T00:53:55.397Z,3.51
2016-12-18T00:55:05.725Z,3.49
2016-12-18T00:56:15.739Z,3.54
2016-12-18T00:57:25.764Z,3.67
2016-12-18T00:58:35.777Z,3.64
2016-12-18T00:59:45.802Z,3.71
2016-12-18T01:00:56.130Z,3.81
2016-12-18T01:02:06.165Z,3.78
2016-12-18T01:03:16.484Z,3.89
2016-12-18T01:04:26.504Z,3.84
2016-12-18T01:05:36.522Z,3.93
2016-12-18T01:06:46.847Z,4.02
2016-12-18T01:07:56.854Z,3.99
2016-12-18T01:09:07.182Z,4.04
2016-12-18T01:10:16.908Z,4.07
2016-12-18T01:11:26.920Z,4.12
2016-12-18T01:12:36.951Z,4.14
2016-12-18T01:13:47.264Z,4.12
2016-12-18T01:14:57.611Z,4.12
2016-12-18T01:16:07.932Z,4.11
2016-12-18T01:17:17.948Z,4.15
2016-12-18T01:18:28.277Z,4.22
2016-12-18T01:19:37.972Z,4.17
2016-12-18T01:20:47.673Z,4.28
2016-12-18T01:21:57.685Z,4.12
2016-12-18T01:23:07.697Z,4.24
2016-12-18T01:24:17.724Z,4.15
2016-12-18T01:25:27.439Z,4.26
2016-12-18T01:26:37.764Z,4.29
2016-12-18T01:27:47.774Z,4.3
2016-12-18T01:28:57.784Z,4.36
2016-12-18T01:30:08.106Z,4.36
2016-12-18T01:31:18.425Z,4.33
2016-12-18T01:32:28.434Z,4.36
2016-12-18T01:33:38.752Z,4.32
2016-12-18T01:34:49.078Z,4.48
2016-12-18T01:35:59.396Z,4.46
2016-12-18T01:37:09.722Z,4.46
2016-12-18T01:38:20.035Z,4.54
2016-12-18T01:39:30.045Z,4.47
2016-12-18T01:40:40.373Z,4.47
2016-12-18T01:41:50.077Z,4.6
2016-12-18T01:43:00.400Z,4.51
2016-12-18T01:44:10.414Z,4.57
2016-12-18T01:45:20.419Z,4.65
2016-12-18T01:46:30.736Z,4.68
2016-12-18T01:47:40.749Z,4.68
2016-12-18T01:48:50.794Z,4.65
2016-12-18T01:50:00.816Z,4.69
2016-12-18T01:51:10.518Z,4.66
2016-12-18T01:52:20.533Z,4.66
2016-12-18T01:53:30.840Z,4.68
2016-12-18T01:54:41.172Z,4.68
2016-12-18T01:55:51.540Z,4.6
2016-12-18T01:57:01.541Z,4.72
2016-12-18T01:58:11.550Z,4.65
2016-12-18T01:59:21.570Z,4.65
2016-12-18T02:00:31.894Z,4.68
2016-12-18T02:01:42.223Z,4.68
2016-12-18T02:02:52.229Z,4.69
2016-12-18T02:04:02.547Z,4.61
2016-12-18T02:05:12.559Z,4.66
2016-12-18T02:06:21.950Z,4.68
2016-12-18T02:07:31.981Z,4.68
2016-12-18T02:08:42.308Z,4.64
2016-12-18T02:09:52.336Z,4.66
2016-12-18T02:11:02.357Z,4.64
2016-12-18T02:12:12.683Z,4.71
2016-12-18T02:13:22.415Z,4.71
2016-12-18T02:14:32.427Z,4.75
2016-12-18T02:15:42.768Z,4.75
2016-12-18T02:16:52.471Z,4.84
2016-12-18T02:18:02.808Z,4.78
2016-12-18T02:19:13.143Z,4.87
2016-12-18T02:20:23.460Z,4.94
2016-12-18T02:21:33.819Z,5.03
2016-12-18T02:22:44.154Z,5.08
2016-12-18T02:23:53.854Z,5.03
2016-12-18T02:25:03.868Z,5.03
2016-12-18T02:26:14.188Z,5.06
2016-12-18T02:27:24.195Z,5.13
2016-12-18T02:28:34.511Z,5.1
2016-12-18T02:29:44.515Z,5.18
2016-12-18T02:30:54.525Z,5.26
2016-12-18T02:32:04.836Z,5.33
2016-12-18T02:33:14.844Z,5.3
2016-12-18T02:34:24.545Z,5.34
2016-12-18T02:35:34.585Z,5.37
2016-12-18T02:36:44.899Z,5.33
2016-12-18T02:37:55.222Z,5.3
2016-12-18T02:39:05.536Z,5.41
2016-12-18T02:40:15.849Z,5.42
2016-12-18T02:41:25.873Z,5.41
2016-12-18T02:42:36.201Z,5.52
2016-12-18T02:43:46.521Z,5.41
2016-12-18T02:44:56.541Z,5.49
2016-12-18T02:46:06.573Z,5.54
2016-12-18T02:47:16.585Z,5.52
2016-12-18T02:48:26.600Z,5.57
2016-12-18T02:49:36.618Z,5.54
2016-12-18T02:50:46.316Z,5.54
2016-12-18T02:51:56.016Z,5.55
2016-12-18T02:53:06.327Z,5.51
2016-12-18T02:54:16.668Z,5.54
2016-12-18T02:55:26.710Z,5.48
2016-12-18T02:56:36.728Z,5.49
2016-12-18T02:57:47.065Z,5.52
2016-12-18T02:58:56.465Z,5.39
2016-12-18T03:00:06.788Z,5.49
2016-12-18T03:01:16.800Z,5.49
2016-12-18T03:33:15.622Z,1.69
2016-12-18T03:34:25.964Z,1.78
2016-12-18T03:35:36.285Z,1.75
2016-12-18T03:36:46.003Z,1.86
2016-12-18T03:37:56.004Z,1.82
2016-12-18T03:39:06.334Z,2.04
2016-12-18T03:40:16.647Z,2.08
2016-12-18T03:41:26.957Z,2.29
2016-12-18T03:42:37.276Z,2.49
2016-12-18T03:43:47.593Z,2.66
2016-12-18T03:44:57.905Z,2.78
2016-12-18T03:46:08.235Z,3.01
2016-12-18T03:47:18.553Z,3.11
2016-12-18T03:48:28.589Z,3.29
2016-12-18T03:49:38.604Z,3.57
2016-12-18T03:50:48.313Z,3.74
2016-12-18T03:51:58.652Z,3.79
2016-12-18T03:53:08.651Z,3.94
2016-12-18T03:54:18.031Z,3.94
2016-12-18T03:55:28.393Z,4.07
2016-12-18T03:56:38.406Z,4.21
2016-12-18T03:57:48.716Z,4.22
2016-12-18T03:58:58.724Z,4.2
2016-12-18T04:00:08.424Z,4.32
2016-12-18T04:01:18.976Z,4.36
2016-12-18T04:02:28.686Z,4.47
2016-12-18T04:03:39.014Z,4.47
2016-12-18T04:04:49.326Z,4.6
2016-12-18T04:05:59.333Z,4.56
2016-12-18T04:07:09.657Z,4.71
2016-12-18T04:08:19.678Z,4.72
2016-12-18T04:09:29.999Z,4.78
2016-12-18T04:10:40.320Z,4.74
2016-12-18T04:11:50.587Z,4.78
2016-12-18T04:13:00.598Z,4.78
2016-12-18T04:14:10.614Z,4.75
2016-12-18T04:15:20.317Z,4.79
2016-12-18T04:16:30.668Z,4.78
2016-12-18T04:17:40.982Z,4.84
2016-12-18T04:18:51.006Z,4.75
2016-12-18T04:20:01.022Z,4.78
2016-12-18T04:21:11.038Z,4.79
2016-12-18T04:22:21.043Z,4.76
2016-12-18T04:23:31.434Z,4.87
2016-12-18T04:24:41.159Z,4.76
2016-12-18T04:25:51.492Z,4.72
2016-12-18T04:27:01.185Z,4.72
2016-12-18T04:28:10.896Z,4.58
2016-12-18T04:29:21.221Z,4.68
2016-12-18T04:30:31.259Z,4.65
2016-12-18T04:31:41.585Z,4.64
2016-12-18T04:32:51.597Z,4.58
2016-12-18T04:34:01.923Z,4.68
2016-12-18T04:35:12.255Z,4.64
2016-12-18T04:36:22.281Z,4.69
2016-12-18T04:37:32.015Z,4.71
2016-12-18T04:38:42.355Z,4.76
2016-12-18T04:39:52.678Z,4.76
2016-12-18T04:41:03.009Z,4.85
2016-12-18T04:42:13.015Z,4.88
2016-12-18T04:43:22.716Z,4.87
2016-12-18T04:44:32.753Z,4.97
2016-12-18T04:45:42.818Z,5
2016-12-18T04:46:52.826Z,4.97
2016-12-18T04:48:02.530Z,5.1
2016-12-18T04:49:12.851Z,5.1
2016-12-18T04:50:23.163Z,5.06
2016-12-18T04:51:32.559Z,5.02
2016-12-18T04:52:42.879Z,4.94
2016-12-18T04:53:52.623Z,4.88
2016-12-18T04:55:02.969Z,4.88
2016-12-18T04:56:13.295Z,4.92
2016-12-18T04:57:23.627Z,4.83
2016-12-18T04:58:33.649Z,4.9
2016-12-18T04:59:43.666Z,4.91
2016-12-18T05:00:53.679Z,4.94
2016-12-18T05:02:03.700Z,5
2016-12-18T05:03:13.710Z,4.92
2016-12-18T05:04:23.417Z,5.02
2016-12-18T05:05:33.426Z,4.94
2016-12-18T05:06:43.440Z,5
2016-12-18T05:07:53.797Z,5
2016-12-18T05:09:03.809Z,5
2016-12-18T05:10:14.161Z,5
2016-12-18T05:11:24.218Z,4.95
2016-12-18T05:12:34.550Z,5.02
2016-12-18T05:13:44.905Z,5.03
2016-12-18T05:14:55.223Z,5.08
2016-12-18T05:16:05.230Z,5.16
2016-12-18T05:17:15.246Z,5.18
2016-12-18T05:18:25.258Z,5.18
2016-12-18T05:19:35.256Z,5.23
2016-12-18T05:20:45.582Z,5.21
2016-12-18T05:21:55.289Z,5.24
2016-12-18T05:23:05.625Z,5.24
2016-12-18T05:24:15.661Z,5.34
2016-12-18T05:25:25.360Z,5.31
2016-12-18T05:26:35.374Z,5.37
2016-12-18T05:27:45.073Z,5.33
2016-12-18T05:28:54.473Z,5.26
2016-12-18T05:30:04.501Z,5.26
2016-12-18T05:31:14.202Z,5.23
2016-12-18T05:32:24.220Z,5.26
2016-12-18T05:33:34.239Z,5.34
2016-12-18T05:34:44.554Z,5.42
2016-12-18T05:35:54.618Z,5.37
2016-12-18T05:37:04.607Z,5.26
2016-12-18T05:38:14.303Z,5.37
2016-12-18T05:39:24.330Z,5.36
2016-12-18T05:40:34.030Z,5.36
2016-12-18T05:41:44.349Z,5.37
2016-12-18T05:42:54.666Z,5.26
2016-12-18T05:44:04.689Z,5.39
2016-12-18T05:45:15.037Z,5.42
2016-12-18T05:46:25.045Z,5.42
2016-12-18T05:47:34.743Z,5.37
2016-12-18T05:48:44.785Z,5.46
2016-12-18T05:49:54.826Z,5.41
2016-12-18T05:51:05.205Z,5.41
2016-12-18T05:52:15.518Z,5.45
2016-12-18T05:53:25.843Z,5.45
2016-12-18T05:54:35.892Z,5.44
2016-12-18T05:55:45.902Z,5.48
2016-12-18T05:56:55.611Z,5.45
2016-12-18T05:58:05.632Z,5.39
2016-12-18T05:59:15.648Z,5.46
2016-12-18T06:00:25.659Z,5.39
2016-12-18T06:01:35.663Z,5.36
2016-12-18T06:02:45.719Z,5.46
2016-12-18T06:03:56.081Z,5.46
2016-12-18T06:05:06.423Z,5.45
2016-12-18T06:06:16.740Z,5.48
2016-12-18T06:07:26.143Z,5.6
2016-12-18T06:08:36.484Z,5.52
2016-12-18T06:09:46.189Z,5.59
2016-12-18T06:10:56.279Z,5.48
2016-12-18T06:12:06.299Z,5.46
2016-12-18T06:13:16.008Z,5.42
2016-12-18T06:14:26.020Z,5.34
2016-12-18T06:15:36.339Z,5.45
2016-12-18T06:16:46.040Z,5.41
2016-12-18T06:17:56.051Z,5.49
2016-12-18T06:19:05.779Z,5.45
2016-12-18T06:20:16.099Z,5.48
2016-12-18T06:21:26.402Z,5.49
2016-12-18T06:22:36.732Z,5.44
2016-12-18T06:23:47.063Z,5.59
2016-12-18T06:24:57.076Z,5.59
2016-12-18T06:26:07.398Z,5.6
2016-12-18T06:27:17.718Z,5.54
2016-12-18T06:28:28.040Z,5.57
2016-12-18T06:29:38.354Z,5.55
2016-12-18T06:30:48.674Z,5.62
2016-12-18T06:31:58.415Z,5.57
2016-12-18T06:33:08.427Z,5.52
2016-12-18T06:34:18.440Z,5.59
2016-12-18T06:35:28.771Z,5.6
2016-12-18T06:36:39.093Z,5.59
2016-12-18T06:37:49.410Z,5.54
2016-12-18T06:38:59.727Z,5.46
2016-12-18T06:40:09.747Z,5.51
2016-12-18T06:41:19.768Z,5.57
2016-12-18T06:42:29.780Z,5.49
2016-12-18T06:43:39.787Z,5.48
2016-12-18T06:44:49.803Z,5.51
2016-12-18T06:46:00.117Z,5.46
2016-12-18T06:47:10.142Z,5.49
2016-12-18T06:48:20.180Z,5.51
2016-12-18T06:49:29.566Z,5.52
2016-12-18T06:50:39.573Z,5.44
2016-12-18T06:51:49.884Z,5.42
2016-12-18T06:52:59.905Z,5.41
2016-12-18T06:54:09.284Z,5.42
2016-12-18T06:55:19.611Z,5.34
2016-12-18T06:56:29.940Z,5.39
2016-12-18T06:57:39.634Z,5.37
2016-12-18T06:58:49.950Z,5.33
2016-12-18T07:00:00.270Z,5.33
2016-12-18T07:01:10.637Z,5.41
2016-12-18T07:02:20.643Z,5.34
2016-12-18T07:03:30.669Z,5.3
2016-12-18T07:04:40.708Z,5.26
2016-12-18T07:05:51.025Z,5.26
2016-12-18T07:07:00.741Z,5.2
2016-12-18T07:08:11.109Z,5.2
2016-12-18T07:09:21.438Z,5.2
2016-12-18T07:10:31.161Z,5.18
2016-12-18T07:11:41.481Z,5.23
2016-12-18T07:12:51.508Z,5.18
2016-12-18T07:14:01.836Z,5.2
2016-12-18T07:15:12.202Z,5.13
2016-12-18T07:16:22.228Z,5.23
2016-12-18T07:17:32.620Z,5.28
2016-12-18T07:18:42.967Z,5.2
2016-12-18T07:19:53.326Z,5.34
2016-12-18T07:21:03.035Z,5.28
2016-12-18T07:22:13.069Z,5.3
2016-12-18T07:23:23.396Z,5.34
2016-12-18T07:24:33.712Z,5.28
2016-12-18T07:25:44.032Z,5.42
2016-12-18T07:26:54.041Z,5.51
2016-12-18T07:28:04.366Z,5.46
2016-12-18T07:29:14.694Z,5.6
2016-12-18T07:30:24.705Z,5.52
2016-12-18T07:31:34.970Z,5.67
2016-12-18T07:32:45.287Z,5.6
2016-12-18T07:33:55.603Z,5.73
2016-12-18T07:35:05.865Z,5.69
2016-12-18T07:36:15.287Z,5.67
2016-12-18T07:37:25.309Z,5.73
2016-12-18T07:38:35.662Z,5.66
2016-12-18T07:39:45.673Z,5.6
2016-12-18T07:40:55.715Z,5.73
2016-12-18T07:42:05.735Z,5.82
2016-12-18T07:43:16.109Z,5.72
2016-12-18T07:44:26.468Z,5.8
2016-12-18T07:45:36.796Z,5.87
2016-12-18T07:46:46.502Z,5.91
2016-12-18T07:47:56.907Z,5.91
2016-12-18T07:49:06.911Z,5.85
2016-12-18T07:50:16.927Z,6.03
2016-12-18T07:51:27.293Z,5.98
2016-12-18T07:52:37.615Z,6.05
2016-12-18T07:53:47.942Z,6.06
2016-12-18T07:54:57.983Z,6.05
2016-12-18T07:56:07.681Z,6.18
2016-12-18T07:57:18.006Z,6.14
2016-12-18T07:58:28.328Z,6.1
2016-12-18T07:59:38.653Z,6.06
2016-12-18T08:00:48.672Z,6.21
2016-12-18T08:01:58.377Z,6.09
2016-12-18T08:03:08.393Z,6.15
2016-12-18T08:04:18.110Z,6.14
2016-12-18T08:05:28.439Z,6.28
2016-12-18T08:06:38.484Z,6.24
2016-12-18T08:07:48.213Z,6.21
2016-12-18T08:08:57.916Z,6.31
2016-12-18T08:10:07.310Z,6.25
2016-12-18T08:11:17.625Z,6.2
2016-12-18T08:12:27.961Z,6.28
2016-12-18T08:13:38.290Z,6.31
2016-12-18T08:14:48.620Z,6.33
2016-12-18T08:15:58.961Z,6.36
2016-12-18T08:17:09.306Z,6.25
2016-12-18T08:18:19.343Z,6.4
2016-12-18T08:19:29.675Z,6.44
2016-12-18T08:20:39.999Z,6.51
2016-12-18T08:21:50.335Z,6.49
2016-12-18T08:23:00.353Z,6.46
2016-12-18T08:24:10.378Z,6.44
2016-12-18T08:25:20.702Z,6.37
2016-12-18T08:26:30.726Z,6.44
2016-12-18T08:27:40.749Z,6.39
2016-12-18T08:28:50.766Z,6.4
2016-12-18T08:30:00.472Z,6.46
2016-12-18T08:31:10.499Z,6.49
2016-12-18T08:32:20.831Z,6.46
2016-12-18T08:33:30.843Z,6.37
2016-12-18T08:34:40.859Z,6.49
2016-12-18T08:35:50.887Z,6.46
2016-12-18T08:37:00.912Z,6.52
2016-12-18T08:38:10.927Z,6.52
2016-12-18T08:39:20.984Z,6.51
2016-12-18T08:40:31.326Z,6.55
2016-12-18T08:41:40.757Z,6.54
2016-12-18T08:42:50.826Z,6.51
2016-12-18T08:44:00.834Z,6.62
2016-12-18T08:45:10.853Z,6.57
2016-12-18T08:46:20.889Z,6.51
2016-12-18T08:47:30.618Z,6.6
2016-12-18T08:48:40.935Z,6.57
2016-12-18T08:49:50.959Z,6.57
2016-12-18T08:51:01.293Z,6.51
2016-12-18T08:52:11.316Z,6.55
2016-12-18T08:53:21.032Z,6.44
2016-12-18T08:54:31.375Z,6.42
2016-12-18T08:55:41.742Z,6.4
2016-12-18T08:56:51.464Z,6.37
2016-12-18T08:58:01.796Z,6.49
2016-12-18T08:59:12.126Z,6.43
2016-12-18T09:00:21.834Z,6.34
2016-12-18T09:01:31.573Z,6.47
2016-12-18T09:02:41.898Z,6.54
2016-12-18T09:03:51.608Z,6.49
2016-12-18T09:05:01.931Z,6.58
2016-12-18T09:06:11.631Z,6.51
2016-12-18T09:07:21.345Z,6.52
2016-12-18T09:08:31.361Z,6.62
2016-12-18T09:09:41.382Z,6.75
2016-12-18T09:10:51.418Z,6.76
2016-12-18T09:12:01.765Z,6.82
2016-12-18T09:13:11.782Z,6.8
2016-12-18T09:14:21.829Z,6.83
2016-12-18T09:15:32.156Z,6.95
2016-12-18T09:16:42.484Z,6.97
2016-12-18T09:17:52.505Z,6.94
2016-12-18T09:19:02.507Z,7
2016-12-18T09:20:12.542Z,7.04
2016-12-18T09:21:22.881Z,7.05
2016-12-18T09:22:33.205Z,7.08
2016-12-18T09:23:43.234Z,7.05
2016-12-18T09:24:53.575Z,7.05
2016-12-18T09:26:03.937Z,7.16
2016-12-18T09:27:14.288Z,7.19
2016-12-18T09:28:24.037Z,7.22
2016-12-18T09:29:33.747Z,7.27
2016-12-18T09:30:44.081Z,7.33
2016-12-18T09:31:54.411Z,7.36
2016-12-18T09:33:04.427Z,7.36
2016-12-18T09:34:14.786Z,7.47
2016-12-18T09:35:25.133Z,7.45
2016-12-18T09:36:34.832Z,7.33
2016-12-18T09:37:44.875Z,7.36
2016-12-18T09:38:55.221Z,7.34
2016-12-18T09:40:05.253Z,7.37
2016-12-18T09:41:14.965Z,7.4
2016-12-18T09:42:25.011Z,7.41
2016-12-18T09:43:35.022Z,7.31
2016-12-18T09:44:45.351Z,7.34
2016-12-18T09:45:55.094Z,7.33
2016-12-18T09:47:05.109Z,7.34
2016-12-18T09:48:15.431Z,7.41
2016-12-18T09:49:25.457Z,7.45
2016-12-18T09:50:35.475Z,7.49
2016-12-18T09:51:44.891Z,7.48
2016-12-18T09:52:55.228Z,7.51
2016-12-18T09:54:05.543Z,7.52
2016-12-18T09:55:15.566Z,7.58
2016-12-18T09:56:25.908Z,7.56
2016-12-18T09:57:36.260Z,7.67
2016-12-18T09:58:46.581Z,7.71
2016-12-18T09:59:56.617Z,7.77
2016-12-18T10:01:06.325Z,7.8
2016-12-18T10:02:16.651Z,7.88
2016-12-18T10:03:26.972Z,7.91
2016-12-18T10:04:37.294Z,7.89
2016-12-18T10:05:46.996Z,7.89
2016-12-18T10:06:57.323Z,7.91
2016-12-18T10:08:07.336Z,7.85
2016-12-18T10:09:17.673Z,7.93
2016-12-18T10:10:27.695Z,7.89
2016-12-18T10:11:37.392Z,7.98
2016-12-18T10:12:47.399Z,8.11
2016-12-18T10:13:57.429Z,8.19
2016-12-18T10:15:07.455Z,8.29
2016-12-18T10:16:17.784Z,8.43
2016-12-18T10:17:27.799Z,8.58
2016-12-18T10:18:38.146Z,8.62
2016-12-18T10:19:48.477Z,8.6
2016-12-18T10:20:58.814Z,8.64
2016-12-18T10:22:08.880Z,8.72
2016-12-18T10:23:19.217Z,8.71
2016-12-18T10:24:29.560Z,8.67
2016-12-18T10:25:39.886Z,8.65
2016-12-18T10:26:49.920Z,8.62
2016-12-18T10:28:00.251Z,8.61
2016-12-18T10:29:10.596Z,8.42
2016-12-18T10:30:20.609Z,8.53
2016-12-18T10:31:29.694Z,8.47
2016-12-18T10:32:40.071Z,8.54
2016-12-18T10:33:50.089Z,8.44
2016-12-18T10:35:00.110Z,8.43
2016-12-18T10:36:10.132Z,8.53
2016-12-18T10:37:19.845Z,8.47
2016-12-18T10:38:29.862Z,8.57
2016-12-18T10:39:39.263Z,8.44
2016-12-18T10:40:49.277Z,8.43
2016-12-18T10:41:59.283Z,8.43
2016-12-18T10:43:09.322Z,8.52
2016-12-18T10:44:19.340Z,8.47
2016-12-18T10:45:29.690Z,8.52
2016-12-18T10:46:39.711Z,8.4
2016-12-18T10:47:50.039Z,8.34
2016-12-18T10:49:00.386Z,8.24
2016-12-18T10:50:10.717Z,8.25
2016-12-18T10:51:21.094Z,8.26
2016-12-18T10:52:31.123Z,8.29
2016-12-18T10:53:41.459Z,8.24
2016-12-18T10:54:51.793Z,8.36
2016-12-18T10:56:02.137Z,8.21
2016-12-18T10:57:12.458Z,8.19
2016-12-18T10:58:22.483Z,8.14
2016-12-18T10:59:32.600Z,8.28
2016-12-18T11:00:42.953Z,8.13
2016-12-18T11:01:52.354Z,8.19
2016-12-18T11:03:02.675Z,8.25
2016-12-18T11:04:12.712Z,8.14
2016-12-18T11:05:23.054Z,8.09
2016-12-18T11:06:33.394Z,8.09
2016-12-18T11:07:43.723Z,8.06
2016-12-18T11:08:54.038Z,7.88
2016-12-18T11:10:03.750Z,7.96
2016-12-18T11:11:14.077Z,7.92
2016-12-18T11:12:24.429Z,7.98
2016-12-18T11:13:34.495Z,7.93
2016-12-18T11:14:44.510Z,7.99
2016-12-18T11:15:54.533Z,8.03
2016-12-18T11:17:04.246Z,7.98
2016-12-18T11:18:14.587Z,8.06
2016-12-18T11:19:24.614Z,7.98
2016-12-18T11:20:34.316Z,8.17
2016-12-18T11:21:44.642Z,8.11
2016-12-18T11:22:54.669Z,8.11
2016-12-18T11:24:04.689Z,8.11
2016-12-18T11:25:14.723Z,8.17
2016-12-18T11:26:25.058Z,8.07
2016-12-18T11:27:50.955Z,8.06
2016-12-18T11:29:01.266Z,8.06
2016-12-18T11:30:11.596Z,7.92
2016-12-18T11:31:21.930Z,7.93
2016-12-18T11:32:32.262Z,7.95
2016-12-18T11:33:42.273Z,7.98
2016-12-18T11:34:52.285Z,7.93
2016-12-18T11:36:02.613Z,7.89
2016-12-18T11:37:12.648Z,7.8
2016-12-18T11:38:22.681Z,7.89
2016-12-18T11:39:32.396Z,7.77
2016-12-18T11:40:42.978Z,7.74
2016-12-18T11:41:53.020Z,7.71
2016-12-18T11:43:03.037Z,7.63
2016-12-18T11:44:13.368Z,7.59
2016-12-18T11:45:23.704Z,7.63
2016-12-18T11:46:34.023Z,7.49
2016-12-18T11:47:43.745Z,7.51
2016-12-18T11:48:54.072Z,7.48
2016-12-18T11:50:04.392Z,7.51
2016-12-18T11:51:14.449Z,7.47
2016-12-18T11:52:24.783Z,7.39
2016-12-18T11:53:35.109Z,7.47
2016-12-18T11:54:45.444Z,7.36
2016-12-18T11:55:55.475Z,7.34
2016-12-18T11:57:05.489Z,7.37
2016-12-18T11:58:15.193Z,7.47
2016-12-18T11:59:25.211Z,7.49
2016-12-18T12:00:35.233Z,7.4
2016-12-18T12:01:45.274Z,7.44
2016-12-18T12:02:54.977Z,7.45
2016-12-18T12:04:05.312Z,7.47
2016-12-18T12:05:15.644Z,7.41
2016-12-18T12:06:26.005Z,7.41
2016-12-18T12:07:36.368Z,7.36
2016-12-18T12:08:46.383Z,7.4
2016-12-18T12:09:56.705Z,7.51
2016-12-18T12:11:06.408Z,7.45
2016-12-18T12:12:16.460Z,7.55
2016-12-18T12:13:26.788Z,7.49
2016-12-18T12:14:36.808Z,7.45
2016-12-18T12:15:46.551Z,7.48
2016-12-18T12:16:56.567Z,7.47
2016-12-18T12:18:06.903Z,7.39
2016-12-18T12:19:16.915Z,7.36
2016-12-18T12:20:26.943Z,7.3
2016-12-18T12:21:36.974Z,7.19
2016-12-18T12:22:46.997Z,7.16
2016-12-18T12:23:57.340Z,7.12
2016-12-18T12:25:07.660Z,7.12
2016-12-18T12:26:17.684Z,7.09
2016-12-18T12:27:27.713Z,7.09
2016-12-18T12:28:37.732Z,7.12
2016-12-18T12:29:47.762Z,7.03
2016-12-18T12:30:58.117Z,6.97
2016-12-18T12:32:08.147Z,6.98
2016-12-18T12:33:18.488Z,6.86
2016-12-18T12:34:29.188Z,6.9
2016-12-18T12:35:39.735Z,6.85
2016-12-18T12:36:49.457Z,6.78
2016-12-18T12:37:59.785Z,6.85
2016-12-18T12:39:09.810Z,6.73
2016-12-18T12:40:19.844Z,6.7
2016-12-18T12:41:29.853Z,6.67
2016-12-18T12:42:39.875Z,6.75
2016-12-18T12:43:49.897Z,6.68
2016-12-18T12:45:00.221Z,6.8
2016-12-18T12:46:09.937Z,6.78
2016-12-18T12:47:20.269Z,6.7
2016-12-18T12:48:30.280Z,6.76
2016-12-18T12:49:40.630Z,6.75
2016-12-18T12:50:50.637Z,6.8
2016-12-18T12:52:00.675Z,6.82
2016-12-18T12:53:10.397Z,6.86
2016-12-18T12:54:20.397Z,6.85
2016-12-18T12:55:30.427Z,6.9
2016-12-18T12:56:40.784Z,6.91
2016-12-18T12:57:51.139Z,6.8
2016-12-18T12:59:01.500Z,6.82
2016-12-18T13:00:11.826Z,6.85
2016-12-18T13:01:22.157Z,6.79
2016-12-18T13:02:32.190Z,6.82
2016-12-18T13:03:42.553Z,6.79
2016-12-18T13:04:52.893Z,6.85
2016-12-18T13:06:03.255Z,6.8
2016-12-18T13:07:13.618Z,6.79
2016-12-18T13:08:23.958Z,6.82
2016-12-18T13:09:34.302Z,6.75
2016-12-18T13:10:44.624Z,6.8
2016-12-18T13:11:54.646Z,6.8
2016-12-18T13:13:04.672Z,6.86
2016-12-18T13:14:14.418Z,6.85
2016-12-18T13:15:23.508Z,6.79
2016-12-18T13:16:33.551Z,6.82
2016-12-18T13:17:43.574Z,6.83
2016-12-18T13:18:53.614Z,6.8
2016-12-18T13:20:03.327Z,6.8
2016-12-18T13:21:13.358Z,6.75
2016-12-18T13:22:23.394Z,6.79
2016-12-18T13:23:33.716Z,6.88
2016-12-18T13:24:43.750Z,6.85
2016-12-18T13:25:53.795Z,6.76
2016-12-18T13:27:03.190Z,6.73
2016-12-18T13:28:13.195Z,6.62
2016-12-18T13:29:23.539Z,6.7
2016-12-18T13:30:33.897Z,6.68
2016-12-18T13:31:43.602Z,6.76
2016-12-18T13:32:53.931Z,6.76
2016-12-18T13:34:04.268Z,6.8
2016-12-18T13:35:14.287Z,6.79
2016-12-18T13:36:24.037Z,6.79
2016-12-18T13:37:34.365Z,6.85
2016-12-18T13:38:44.377Z,6.82
2016-12-18T13:39:54.096Z,6.8
2016-12-18T13:41:04.459Z,6.88
2016-12-18T13:42:14.517Z,6.82
2016-12-18T13:43:24.539Z,6.88
2016-12-18T13:44:34.855Z,6.94
2016-12-18T13:45:45.193Z,6.91
2016-12-18T13:46:54.907Z,6.95
2016-12-18T13:48:05.252Z,6.86
2016-12-18T13:49:15.270Z,6.83
2016-12-18T13:50:25.594Z,6.76
2016-12-18T13:51:35.627Z,6.86
2016-12-18T13:52:45.649Z,6.91
2016-12-18T13:53:55.988Z,6.88
2016-12-18T13:55:06.335Z,6.9
2016-12-18T13:56:16.662Z,6.85
2016-12-18T13:57:27.003Z,6.83
2016-12-18T13:58:37.056Z,6.78
2016-12-18T13:59:47.386Z,6.79
2016-12-18T14:00:57.724Z,6.76
2016-12-18T14:02:08.052Z,6.68
2016-12-18T14:03:18.411Z,6.73
2016-12-18T14:04:28.458Z,6.67
2016-12-18T14:05:38.489Z,6.67
2016-12-18T14:06:48.211Z,6.49
2016-12-18T14:07:58.229Z,6.61
2016-12-18T14:09:08.571Z,6.57
2016-12-18T14:10:18.914Z,6.55
2016-12-18T14:11:28.637Z,6.57
2016-12-18T14:12:38.357Z,6.57
2016-12-18T14:13:47.742Z,6.57
2016-12-18T14:14:57.770Z,6.57
2016-12-18T14:16:08.100Z,6.43
2016-12-18T14:17:18.124Z,6.46
2016-12-18T14:18:28.134Z,6.44
2016-12-18T14:19:37.843Z,6.47
2016-12-18T14:20:48.448Z,6.36
2016-12-18T14:21:58.475Z,6.31
2016-12-18T14:23:08.800Z,6.43
2016-12-18T14:24:18.812Z,6.34
2016-12-18T14:25:28.837Z,6.29
2016-12-18T14:26:38.880Z,6.33
2016-12-18T14:27:48.922Z,6.28
2016-12-18T14:28:59.254Z,6.33
2016-12-18T14:30:09.276Z,6.29
2016-12-18T14:31:19.604Z,6.26
2016-12-18T14:32:29.935Z,6.25
2016-12-18T14:33:39.687Z,6.33
2016-12-18T14:34:49.753Z,6.29
2016-12-18T14:35:59.837Z,6.36
2016-12-18T14:37:10.179Z,6.43
2016-12-18T14:38:20.218Z,6.37
2016-12-18T14:39:29.987Z,6.33
2016-12-18T14:40:40.338Z,6.37
2016-12-18T14:41:50.673Z,6.31
2016-12-18T14:43:01.004Z,6.34
2016-12-18T14:44:11.346Z,6.34
2016-12-18T14:45:21.364Z,6.37
2016-12-18T14:46:30.764Z,6.39
2016-12-18T14:47:40.782Z,6.29
2016-12-18T14:48:50.807Z,6.28
2016-12-18T14:50:01.146Z,6.46
2016-12-18T14:51:11.168Z,6.34
2016-12-18T14:52:21.501Z,6.39
2016-12-18T14:53:31.524Z,6.39
2016-12-18T14:54:41.538Z,6.46
2016-12-18T14:55:51.883Z,6.4
2016-12-18T14:57:01.919Z,6.42
2016-12-18T14:58:12.297Z,6.54
2016-12-18T14:59:22.322Z,6.54
2016-12-18T15:00:32.044Z,6.58
2016-12-18T15:01:42.411Z,6.52
2016-12-18T15:02:52.809Z,6.51
2016-12-18T15:04:03.157Z,6.47
2016-12-18T15:05:13.193Z,6.43
2016-12-18T15:06:23.543Z,6.49
2016-12-18T15:07:33.571Z,6.43
2016-12-18T15:08:43.972Z,6.42
2016-12-18T15:09:53.702Z,6.46
2016-12-18T15:11:03.734Z,6.39
2016-12-18T15:12:14.086Z,6.4
2016-12-18T15:13:24.416Z,6.36
2016-12-18T15:14:34.137Z,6.39
2016-12-18T15:15:44.166Z,6.44
2016-12-18T15:16:54.501Z,6.36
2016-12-18T15:18:04.513Z,6.4
2016-12-18T15:19:14.851Z,6.4
2016-12-18T15:20:24.868Z,6.42
2016-12-18T15:21:34.917Z,6.33
2016-12-18T15:22:45.236Z,6.39
2016-12-18T15:23:55.570Z,6.39
2016-12-18T15:25:05.900Z,6.42
2016-12-18T15:26:15.922Z,6.36
2016-12-18T15:27:25.956Z,6.28
2016-12-18T15:28:36.033Z,6.39
2016-12-18T15:29:46.096Z,6.34
2016-12-18T15:30:56.440Z,6.39
2016-12-18T15:32:06.481Z,6.43
2016-12-18T15:33:16.864Z,6.37
2016-12-18T15:34:27.219Z,6.42
2016-12-18T15:35:37.266Z,6.29
2016-12-18T15:36:46.995Z,6.28
2016-12-18T15:37:57.326Z,6.33
2016-12-18T15:39:07.647Z,6.21
2016-12-18T15:40:17.978Z,6.21
2016-12-18T15:41:28.009Z,6.18
2016-12-18T15:42:38.357Z,6.29
2016-12-18T15:43:48.397Z,6.25
2016-12-18T15:44:58.801Z,6.24
2016-12-18T15:46:09.163Z,6.26
2016-12-18T15:47:19.512Z,6.39
2016-12-18T15:48:29.528Z,6.37
2016-12-18T15:49:39.898Z,6.37
2016-12-18T15:50:50.217Z,6.29
2016-12-18T15:51:59.934Z,6.33
2016-12-18T15:53:10.281Z,6.31
2016-12-18T15:54:19.997Z,6.29
2016-12-18T15:55:30.326Z,6.31
2016-12-18T15:56:40.335Z,6.36
2016-12-18T15:57:50.359Z,6.47
2016-12-18T15:59:00.702Z,6.4
2016-12-18T16:00:10.097Z,6.37
2016-12-18T16:01:20.141Z,6.25
2016-12-18T16:02:30.537Z,6.26
2016-12-18T16:03:40.898Z,6.2
2016-12-18T16:04:51.224Z,6.2
2016-12-18T16:06:01.279Z,6.06
2016-12-18T16:07:11.352Z,6.15